Time;durP1;ratioP1;P1;durP2;ratioP2;P2;SDS_P1;SDS_P2;PMS_P1;PMS_P2;Temp;Humidity;BMP_temperature;BMP_pressure;BME280_temperature;BME280_humidity;BME280_pressure;Samples;Min_cycle;Max_cycle;Signal;HPM_P1;HPM_P2
2023/03/01 00:02:08;;;;;;;28.85;19.80;;;;;;;;;;4905691;29;20451;-80
2023/03/01 00:04:35;;;;;;;31.35;19.30;;;;;;;;;;4915933;29;20779;-80
2023/03/01 00:07:01;;;;;;;31.48;19.48;;;;;;;;;;4920810;29;20423;-80
2023/03/01 00:09:27;;;;;;;31.07;19.87;;;;;;;;;;4918976;29;20423;-80
2023/03/01 00:11:53;;;;;;;28.45;19.20;;;;;;;;;;4917015;29;20474;-79
2023/03/01 00:14:20;;;;;;;30.95;20.52;;;;;;;;;;4934751;29;20419;-79
2023/03/01 00:16:46;;;;;;;27.13;19.20;;;;;;;;;;4918345;29;20808;-79
2023/03/01 00:19:19;;;;;;;30.35;19.13;;;;;;;;;;4932233;29;20444;-80
2023/03/01 00:21:46;;;;;;;28.50;19.42;;;;;;;;;;4932536;29;20439;-79
2023/03/01 00:24:13;;;;;;;28.45;19.10;;;;;;;;;;4917072;29;20455;-79
2023/03/01 00:26:39;;;;;;;30.40;19.67;;;;;;;;;;4915160;29;20425;-79
2023/03/01 00:29:05;;;;;;;30.25;18.58;;;;;;;;;;4918804;29;20915;-79
2023/03/01 00:31:32;;;;;;;30.95;19.40;;;;;;;;;;4932169;29;20427;-79
2023/03/01 00:33:59;;;;;;;32.60;21.02;;;;;;;;;;4919738;29;20506;-79
2023/03/01 00:36:27;;;;;;;31.80;21.15;;;;;;;;;;4918685;29;20419;-80
2023/03/01 00:38:53;;;;;;;31.55;20.02;;;;;;;;;;4929764;29;20569;-79
2023/03/01 00:41:20;;;;;;;32.05;20.48;;;;;;;;;;4913253;29;20471;-80
2023/03/01 00:43:46;;;;;;;33.17;22.15;;;;;;;;;;4915598;29;20498;-80
2023/03/01 00:46:15;;;;;;;37.25;24.52;;;;;;;;;;4917508;29;20427;-80
2023/03/01 00:48:41;;;;;;;34.60;23.23;;;;;;;;;;4933499;29;20830;-79
2023/03/01 00:51:08;;;;;;;34.88;23.60;;;;;;;;;;4932602;29;20431;-79
2023/03/01 00:53:35;;;;;;;31.08;20.67;;;;;;;;;;4932111;29;20506;-80
2023/03/01 00:56:01;;;;;;;29.73;20.57;;;;;;;;;;4934031;29;20411;-80
2023/03/01 00:58:27;;;;;;;31.02;20.98;;;;;;;;;;4930516;29;20435;-80
2023/03/01 01:00:55;;;;;;;29.10;19.77;;;;;;;;;;4897372;29;21316;-80
2023/03/01 01:03:21;;;;;;;29.15;19.17;;;;;;;;;;4891783;29;20528;-80
2023/03/01 01:05:47;;;;;;;32.05;20.30;;;;;;;;;;4882770;29;20479;-80
2023/03/01 01:08:13;;;;;;;28.13;19.00;;;;;;;;;;4899027;29;20433;-80
2023/03/01 01:10:39;;;;;;;28.83;18.80;;;;;;;;;;4918083;29;20515;-80
2023/03/01 01:13:05;;;;;;;29.80;18.42;;;;;;;;;;4914053;29;20502;-80
2023/03/01 01:15:35;;;;;;;31.75;19.15;;;;;;;;;;4932961;29;20514;-80
2023/03/01 01:18:01;;;;;;;26.75;18.90;;;;;;;;;;4932649;29;20931;-80
2023/03/01 01:20:27;;;;;;;27.50;19.17;;;;;;;;;;4933001;29;20955;-80
2023/03/01 01:22:53;;;;;;;33.63;18.45;;;;;;;;;;4930675;29;20535;-79
2023/03/01 01:25:19;;;;;;;42.30;23.10;;;;;;;;;;4931861;29;21045;-79
2023/03/01 01:27:45;;;;;;;150.60;33.00;;;;;;;;;;4916209;29;20431;-79
2023/03/01 01:30:12;;;;;;;378.30;41.40;;;;;;;;;;4917491;29;20427;-79
2023/03/01 01:32:38;;;;;;;214.00;34.38;;;;;;;;;;4915141;29;20497;-79
2023/03/01 01:35:05;;;;;;;82.30;29.92;;;;;;;;;;4933146;29;20407;-80
2023/03/01 01:37:33;;;;;;;89.05;32.72;;;;;;;;;;4931120;29;20439;-79
2023/03/01 01:39:59;;;;;;;121.30;28.35;;;;;;;;;;4917439;29;20439;-79
2023/03/01 01:42:25;;;;;;;171.43;26.27;;;;;;;;;;4930611;29;20427;-79
2023/03/01 01:45:10;;;;;;;73.57;22.00;;;;;;;;;;4931983;29;20431;-79
2023/03/01 01:47:36;;;;;;;154.90;24.17;;;;;;;;;;4930784;29;20584;-79
2023/03/01 01:50:02;;;;;;;224.63;24.83;;;;;;;;;;4898234;29;20433;-79
2023/03/01 01:52:35;;;;;;;250.65;25.38;;;;;;;;;;4898306;29;20584;-79
2023/03/01 01:55:21;;;;;;;311.02;25.35;;;;;;;;;;4917816;29;20776;-79
2023/03/01 01:57:56;;;;;;;301.35;30.08;;;;;;;;;;4932086;29;21297;-79
2023/03/01 02:00:25;;;;;;;287.63;26.65;;;;;;;;;;4933109;29;20439;-79
2023/03/01 02:02:55;;;;;;;289.15;28.10;;;;;;;;;;4930771;29;21508;-79
2023/03/01 02:05:25;;;;;;;393.88;31.92;;;;;;;;;;4913684;29;20424;-79
2023/03/01 02:07:51;;;;;;;411.52;35.15;;;;;;;;;;4930039;29;21024;-79
2023/03/01 02:10:18;;;;;;;322.55;29.95;;;;;;;;;;4947916;29;20582;-79
2023/03/01 02:12:44;;;;;;;296.25;28.42;;;;;;;;;;4915585;29;20424;-79
2023/03/01 02:15:11;;;;;;;310.27;27.02;;;;;;;;;;4913748;29;20417;-79
2023/03/01 02:17:38;;;;;;;330.42;30.52;;;;;;;;;;4913161;29;20416;-79
2023/03/01 02:20:18;;;;;;;392.43;34.03;;;;;;;;;;4934042;29;20602;-79
2023/03/01 02:22:45;;;;;;;449.08;35.40;;;;;;;;;;4919496;29;20461;-79
2023/03/01 02:25:20;;;;;;;383.23;32.80;;;;;;;;;;4919284;29;20427;-79
2023/03/01 02:27:52;;;;;;;200.02;25.27;;;;;;;;;;4920636;29;20478;-79
2023/03/01 02:30:19;;;;;;;191.10;25.50;;;;;;;;;;4937808;29;20439;-79
2023/03/01 02:32:46;;;;;;;224.93;27.38;;;;;;;;;;4936244;29;20463;-79
2023/03/01 02:35:13;;;;;;;327.33;30.40;;;;;;;;;;4921450;29;20913;-79
2023/03/01 02:37:40;;;;;;;360.42;29.92;;;;;;;;;;4905206;29;20484;-79
2023/03/01 02:40:11;;;;;;;294.00;29.38;;;;;;;;;;4907188;29;20495;-79
2023/03/01 02:42:42;;;;;;;473.08;38.83;;;;;;;;;;4921949;29;20472;-79
2023/03/01 02:45:08;;;;;;;335.52;30.15;;;;;;;;;;4911241;29;20439;-79
2023/03/01 02:47:34;;;;;;;327.42;31.08;;;;;;;;;;4935337;29;20427;-79
2023/03/01 02:50:00;;;;;;;333.80;30.85;;;;;;;;;;4920259;29;20420;-79
2023/03/01 02:52:35;;;;;;;211.40;25.02;;;;;;;;;;4904392;29;20492;-79
2023/03/01 02:55:09;;;;;;;228.48;27.90;;;;;;;;;;4916805;29;20439;-79
2023/03/01 02:57:37;;;;;;;418.30;34.15;;;;;;;;;;4927358;29;20415;-79
2023/03/01 03:00:08;;;;;;;278.27;28.37;;;;;;;;;;4934805;29;20427;-79
2023/03/01 03:02:38;;;;;;;291.83;32.43;;;;;;;;;;4932008;29;20519;-79
2023/03/01 03:05:05;;;;;;;385.17;35.20;;;;;;;;;;4920129;29;20419;-79
2023/03/01 03:07:33;;;;;;;258.15;27.40;;;;;;;;;;4935703;29;20439;-79
2023/03/01 03:09:59;;;;;;;313.52;26.83;;;;;;;;;;4935364;29;20435;-79
2023/03/01 03:12:25;;;;;;;340.90;29.33;;;;;;;;;;4917664;29;20434;-79
2023/03/01 03:14:51;;;;;;;363.80;33.42;;;;;;;;;;4935394;29;20462;-79
2023/03/01 03:17:17;;;;;;;331.30;28.38;;;;;;;;;;4933498;29;20438;-79
2023/03/01 03:19:45;;;;;;;379.73;29.88;;;;;;;;;;4916736;29;20456;-79
2023/03/01 03:22:12;;;;;;;312.90;25.95;;;;;;;;;;4928239;29;20434;-79
2023/03/01 03:24:38;;;;;;;360.38;27.23;;;;;;;;;;4903862;29;20502;-79
2023/03/01 03:27:05;;;;;;;281.17;27.88;;;;;;;;;;4919887;29;20487;-79
2023/03/01 03:29:31;;;;;;;420.65;33.67;;;;;;;;;;4934635;29;20916;-79
2023/03/01 03:31:57;;;;;;;511.35;38.42;;;;;;;;;;4917938;29;20435;-79
2023/03/01 03:34:23;;;;;;;557.55;42.65;;;;;;;;;;4918597;29;20835;-79
2023/03/01 03:36:56;;;;;;;526.10;36.23;;;;;;;;;;4935332;29;20419;-79
2023/03/01 03:39:23;;;;;;;531.33;37.35;;;;;;;;;;4935677;29;20439;-79
2023/03/01 03:41:49;;;;;;;490.35;34.95;;;;;;;;;;4932934;29;20760;-79
2023/03/01 03:44:15;;;;;;;387.27;32.47;;;;;;;;;;4918469;29;20518;-79
2023/03/01 03:46:41;;;;;;;288.90;29.08;;;;;;;;;;4919718;29;20408;-79
2023/03/01 03:49:07;;;;;;;851.90;78.30;;;;;;;;;;4918537;29;20439;-79
2023/03/01 03:51:33;;;;;;;374.88;36.83;;;;;;;;;;4916689;29;20534;-79
2023/03/01 03:53:59;;;;;;;247.52;28.52;;;;;;;;;;4933532;29;20435;-79
2023/03/01 03:56:25;;;;;;;220.70;29.23;;;;;;;;;;4903913;29;20498;-79
2023/03/01 03:58:52;;;;;;;211.17;29.37;;;;;;;;;;4915527;29;21044;-79
2023/03/01 04:01:18;;;;;;;154.65;26.67;;;;;;;;;;4915879;29;20431;-79
2023/03/01 04:03:46;;;;;;;274.63;31.17;;;;;;;;;;4928777;29;20435;-79
2023/03/01 04:06:13;;;;;;;252.40;31.02;;;;;;;;;;4918353;29;20515;-79
2023/03/01 04:08:39;;;;;;;90.78;22.80;;;;;;;;;;4919519;29;20796;-79
2023/03/01 04:13:51;;;;;;;211.57;27.70;;;;;;;;;;4920801;29;20421;-78
2023/03/01 04:16:17;;;;;;;100.88;24.48;;;;;;;;;;4919095;29;20843;-78
2023/03/01 04:18:43;;;;;;;42.87;20.57;;;;;;;;;;4933772;29;20530;-78
2023/03/01 04:21:11;;;;;;;30.85;19.85;;;;;;;;;;4933038;29;20991;-79
2023/03/01 04:23:37;;;;;;;26.13;17.92;;;;;;;;;;4916664;29;20776;-78
2023/03/01 04:26:03;;;;;;;27.00;18.45;;;;;;;;;;4934994;29;20474;-78
2023/03/01 04:28:34;;;;;;;32.95;19.45;;;;;;;;;;4934005;29;21003;-78
2023/03/01 04:31:12;;;;;;;55.37;21.67;;;;;;;;;;4916006;29;20510;-78
2023/03/01 04:33:39;;;;;;;27.98;17.48;;;;;;;;;;4932232;29;20467;-78
2023/03/01 04:36:05;;;;;;;26.40;17.88;;;;;;;;;;4932591;29;20430;-77
2023/03/01 04:38:31;;;;;;;26.00;16.92;;;;;;;;;;4933097;29;20787;-77
2023/03/01 04:40:57;;;;;;;22.40;15.63;;;;;;;;;;4934180;29;20431;-78
2023/03/01 04:43:23;;;;;;;21.52;14.90;;;;;;;;;;4915023;29;20503;-78
2023/03/01 04:45:49;;;;;;;19.50;14.48;;;;;;;;;;4930728;29;20446;-77
2023/03/01 04:48:15;;;;;;;20.85;15.40;;;;;;;;;;4905720;29;20749;-78
2023/03/01 04:50:41;;;;;;;20.97;14.73;;;;;;;;;;4917799;29;20999;-77
2023/03/01 04:53:07;;;;;;;32.03;16.52;;;;;;;;;;4916595;29;20870;-78
2023/03/01 04:55:34;;;;;;;60.53;19.88;;;;;;;;;;4900043;29;20454;-78
2023/03/01 04:58:00;;;;;;;46.55;17.33;;;;;;;;;;4934075;29;20422;-77
2023/03/01 05:00:26;;;;;;;31.17;15.85;;;;;;;;;;4920136;29;20950;-77
2023/03/01 05:02:54;;;;;;;28.65;15.68;;;;;;;;;;4933661;29;20953;-78
2023/03/01 05:05:25;;;;;;;46.00;16.58;;;;;;;;;;4931440;29;20427;-77
2023/03/01 05:07:52;;;;;;;26.15;16.25;;;;;;;;;;4915381;29;20413;-78
2023/03/01 05:10:18;;;;;;;20.88;15.25;;;;;;;;;;4932954;29;20514;-78
2023/03/01 05:12:44;;;;;;;26.75;20.02;;;;;;;;;;4932386;29;20709;-78
2023/03/01 05:15:10;;;;;;;31.15;21.35;;;;;;;;;;4932592;29;20430;-78
2023/03/01 05:17:36;;;;;;;28.35;20.15;;;;;;;;;;4933625;29;20545;-78
2023/03/01 05:20:07;;;;;;;23.90;16.73;;;;;;;;;;4917058;29;20953;-78
2023/03/01 05:22:33;;;;;;;22.58;16.48;;;;;;;;;;4932164;29;20431;-78
2023/03/01 05:24:59;;;;;;;24.08;16.10;;;;;;;;;;4932936;29;20427;-78
2023/03/01 05:27:25;;;;;;;22.90;16.25;;;;;;;;;;4918157;29;20458;-78
2023/03/01 05:29:51;;;;;;;21.58;15.77;;;;;;;;;;4913469;29;20437;-78
2023/03/01 05:32:17;;;;;;;21.48;15.75;;;;;;;;;;4929786;29;20463;-77
2023/03/01 05:34:46;;;;;;;20.15;14.70;;;;;;;;;;4892451;29;20444;-78
2023/03/01 05:37:13;;;;;;;18.55;13.77;;;;;;;;;;4914744;29;20413;-78
2023/03/01 05:39:39;;;;;;;21.73;15.60;;;;;;;;;;4927360;29;20439;-78
2023/03/01 05:42:05;;;;;;;21.13;15.05;;;;;;;;;;4932103;29;20994;-78
2023/03/01 05:44:31;;;;;;;21.80;15.50;;;;;;;;;;4931634;29;20427;-78
2023/03/01 05:46:58;;;;;;;22.77;16.02;;;;;;;;;;4931634;29;20453;-78
2023/03/01 05:49:24;;;;;;;22.50;16.40;;;;;;;;;;4933217;29;20415;-78
2023/03/01 05:51:51;;;;;;;26.87;17.87;;;;;;;;;;4930313;29;20492;-77
2023/03/01 05:54:18;;;;;;;29.92;18.92;;;;;;;;;;4913711;29;20818;-77
2023/03/01 05:56:44;;;;;;;29.75;19.05;;;;;;;;;;4918060;29;20434;-78
2023/03/01 05:59:11;;;;;;;29.75;18.45;;;;;;;;;;4915913;29;20447;-78
2023/03/01 06:01:37;;;;;;;33.22;19.13;;;;;;;;;;4931607;29;20435;-78
2023/03/01 06:04:04;;;;;;;31.30;19.02;;;;;;;;;;4929891;29;20523;-78
2023/03/01 06:06:33;;;;;;;28.20;17.80;;;;;;;;;;4933109;29;20411;-78
2023/03/01 06:08:59;;;;;;;28.45;17.75;;;;;;;;;;4933068;29;20419;-78
2023/03/01 06:11:25;;;;;;;27.98;17.67;;;;;;;;;;4928105;29;20436;-78
2023/03/01 06:13:52;;;;;;;24.60;16.00;;;;;;;;;;4899940;29;20490;-78
2023/03/01 06:16:18;;;;;;;23.75;16.40;;;;;;;;;;4932351;29;20424;-78
2023/03/01 06:18:44;;;;;;;23.53;16.87;;;;;;;;;;4913585;29;20439;-78
2023/03/01 06:21:10;;;;;;;31.95;20.17;;;;;;;;;;4911038;29;21002;-78
2023/03/01 06:23:36;;;;;;;32.60;19.90;;;;;;;;;;4894843;29;20428;-81
2023/03/01 06:26:05;;;;;;;28.05;18.35;;;;;;;;;;4928432;29;20431;-78
2023/03/01 06:28:31;;;;;;;29.60;20.00;;;;;;;;;;4927447;29;20427;-86
2023/03/01 06:30:57;;;;;;;39.47;21.20;;;;;;;;;;4914178;29;20413;-79
2023/03/01 06:33:24;;;;;;;26.35;17.55;;;;;;;;;;4906156;29;20816;-77
2023/03/01 06:35:50;;;;;;;24.40;16.97;;;;;;;;;;4914148;29;20431;-77
2023/03/01 06:38:18;;;;;;;22.83;16.35;;;;;;;;;;4930773;29;20482;-77
2023/03/01 06:40:45;;;;;;;24.23;16.58;;;;;;;;;;4913005;29;20433;-78
2023/03/01 06:43:11;;;;;;;141.18;25.30;;;;;;;;;;4911825;29;20427;-77
2023/03/01 06:45:37;;;;;;;24.92;17.17;;;;;;;;;;4916657;29;20420;-78
2023/03/01 06:48:07;;;;;;;23.50;16.33;;;;;;;;;;4917482;29;20419;-77
2023/03/01 06:50:34;;;;;;;22.70;15.85;;;;;;;;;;4924276;29;20435;-78
2023/03/01 06:53:00;;;;;;;23.25;16.05;;;;;;;;;;4928544;29;20438;-77
2023/03/01 06:55:26;;;;;;;22.30;15.52;;;;;;;;;;4917247;29;20502;-78
2023/03/01 06:57:56;;;;;;;21.17;15.27;;;;;;;;;;4902815;29;20899;-79
2023/03/01 07:00:23;;;;;;;21.60;16.23;;;;;;;;;;4915289;29;20433;-81
2023/03/01 07:02:49;;;;;;;22.52;16.15;;;;;;;;;;4931135;29;20439;-82
2023/03/01 07:05:15;;;;;;;21.75;16.00;;;;;;;;;;4901226;29;20435;-81
2023/03/01 07:07:41;;;;;;;22.47;16.80;;;;;;;;;;4934037;29;20508;-80
2023/03/01 07:10:08;;;;;;;21.73;16.17;;;;;;;;;;4916044;29;20427;-80
2023/03/01 07:12:34;;;;;;;24.27;18.13;;;;;;;;;;4935070;29;20844;-81
2023/03/01 07:15:00;;;;;;;23.33;17.42;;;;;;;;;;4920171;29;20419;-79
2023/03/01 07:17:26;;;;;;;21.58;16.58;;;;;;;;;;4898523;29;20444;-80
2023/03/01 07:19:52;;;;;;;23.98;17.92;;;;;;;;;;4889210;29;20506;-79
2023/03/01 07:22:18;;;;;;;24.40;18.70;;;;;;;;;;4934686;29;20796;-80
2023/03/01 07:24:44;;;;;;;25.52;19.80;;;;;;;;;;4931452;29;20432;-80
2023/03/01 07:27:10;;;;;;;25.17;18.25;;;;;;;;;;4914582;29;20439;-80
2023/03/01 07:29:37;;;;;;;23.88;17.17;;;;;;;;;;4919479;29;20450;-80
2023/03/01 07:32:03;;;;;;;25.80;19.87;;;;;;;;;;4933564;29;20423;-81
2023/03/01 07:34:30;;;;;;;28.33;21.43;;;;;;;;;;4932917;29;20442;-80
2023/03/01 07:36:56;;;;;;;32.17;23.63;;;;;;;;;;4918406;29;20448;-81
2023/03/01 07:39:25;;;;;;;30.58;22.60;;;;;;;;;;4917379;29;20450;-81
2023/03/01 07:41:51;;;;;;;26.98;19.70;;;;;;;;;;4927243;29;20522;-81
2023/03/01 07:44:17;;;;;;;22.92;17.00;;;;;;;;;;4918778;29;20427;-82
2023/03/01 07:46:43;;;;;;;24.73;17.40;;;;;;;;;;4933740;29;20489;-82
2023/03/01 07:49:10;;;;;;;24.88;18.45;;;;;;;;;;4927035;29;20413;-81
2023/03/01 07:51:36;;;;;;;25.17;17.88;;;;;;;;;;4945432;28;20434;-83
2023/03/01 07:54:03;;;;;;;27.98;18.92;;;;;;;;;;4928981;29;20904;-81
2023/03/01 07:56:29;;;;;;;26.17;18.35;;;;;;;;;;4927337;29;20500;-82
2023/03/01 07:58:55;;;;;;;26.95;18.63;;;;;;;;;;4912755;29;20518;-83
2023/03/01 08:01:21;;;;;;;23.42;17.92;;;;;;;;;;4910568;29;20490;-83
2023/03/01 08:03:48;;;;;;;24.50;18.58;;;;;;;;;;4931334;29;20444;-82
2023/03/01 08:06:15;;;;;;;27.65;19.67;;;;;;;;;;4911297;29;20427;-82
2023/03/01 08:08:41;;;;;;;26.63;18.75;;;;;;;;;;4915758;29;20429;-82
2023/03/01 08:11:08;;;;;;;28.27;20.73;;;;;;;;;;4905157;29;20483;-82
2023/03/01 08:13:37;;;;;;;29.60;21.17;;;;;;;;;;4917352;29;20430;-82
2023/03/01 08:16:04;;;;;;;28.45;20.63;;;;;;;;;;4915574;29;20780;-82
2023/03/01 08:18:30;;;;;;;30.48;21.92;;;;;;;;;;4917249;29;20428;-83
2023/03/01 08:20:56;;;;;;;30.30;21.42;;;;;;;;;;4902367;29;20420;-82
2023/03/01 08:23:22;;;;;;;28.98;20.83;;;;;;;;;;4925827;29;20431;-82
2023/03/01 08:25:48;;;;;;;29.60;20.48;;;;;;;;;;4944179;28;20431;-85
2023/03/01 08:28:14;;;;;;;32.28;21.42;;;;;;;;;;4925110;29;20443;-85
2023/03/01 08:30:40;;;;;;;29.08;20.67;;;;;;;;;;4911836;29;20788;-85
2023/03/01 08:33:06;;;;;;;30.90;21.90;;;;;;;;;;4934397;29;20443;-84
2023/03/01 08:35:33;;;;;;;27.23;19.52;;;;;;;;;;4911765;29;20427;-84
2023/03/01 08:37:59;;;;;;;28.55;20.23;;;;;;;;;;4916827;29;20431;-85
2023/03/01 08:40:25;;;;;;;28.08;20.45;;;;;;;;;;4920124;29;20448;-83
2023/03/01 08:42:51;;;;;;;30.42;21.27;;;;;;;;;;4930735;29;20420;-84
2023/03/01 08:45:18;;;;;;;31.63;21.60;;;;;;;;;;4914907;29;20450;-84
2023/03/01 08:47:45;;;;;;;33.38;22.35;;;;;;;;;;4932024;29;20435;-84
2023/03/01 08:50:11;;;;;;;33.45;22.23;;;;;;;;;;4918139;29;20442;-85
2023/03/01 08:52:37;;;;;;;30.75;21.83;;;;;;;;;;4927918;29;20439;-85
2023/03/01 08:55:03;;;;;;;32.70;22.85;;;;;;;;;;4929877;29;20506;-84
2023/03/01 08:57:30;;;;;;;31.40;22.90;;;;;;;;;;4930183;29;20431;-86
2023/03/01 08:59:56;;;;;;;30.33;21.92;;;;;;;;;;4926604;29;20975;-85
2023/03/01 09:02:22;;;;;;;31.67;22.23;;;;;;;;;;4930635;29;20431;-84
2023/03/01 09:04:48;;;;;;;30.90;22.17;;;;;;;;;;4909916;29;20501;-85
2023/03/01 09:07:14;;;;;;;31.88;22.95;;;;;;;;;;4885606;29;21028;-85
2023/03/01 09:09:41;;;;;;;31.40;22.75;;;;;;;;;;4927916;29;20950;-86
2023/03/01 09:12:07;;;;;;;30.17;21.63;;;;;;;;;;4916426;29;20805;-85
2023/03/01 09:14:33;;;;;;;31.88;22.80;;;;;;;;;;4916092;29;20419;-85
2023/03/01 09:17:02;;;;;;;32.53;21.90;;;;;;;;;;4921156;29;20442;-86
2023/03/01 09:19:28;;;;;;;33.38;22.40;;;;;;;;;;4926248;29;20435;-85
2023/03/01 09:21:55;;;;;;;33.30;22.05;;;;;;;;;;4919247;29;20429;-85
2023/03/01 09:24:22;;;;;;;30.63;21.48;;;;;;;;;;4908652;29;20478;-86
2023/03/01 09:26:49;;;;;;;30.20;21.02;;;;;;;;;;4926340;29;20421;-86
2023/03/01 09:29:15;;;;;;;28.92;19.88;;;;;;;;;;4930312;29;20418;-86
2023/03/01 09:31:42;;;;;;;27.40;19.98;;;;;;;;;;4915506;29;20459;-87
2023/03/01 09:34:09;;;;;;;28.38;19.77;;;;;;;;;;4933348;29;20920;-86
2023/03/01 09:36:35;;;;;;;25.35;18.98;;;;;;;;;;4933839;29;20923;-87
2023/03/01 09:39:01;;;;;;;29.60;21.20;;;;;;;;;;4914994;29;20443;-85
2023/03/01 09:42:04;;;;;;;27.77;20.13;;;;;;;;;;4912689;29;20452;-86
2023/03/01 09:44:38;;;;;;;29.88;20.50;;;;;;;;;;4856189;29;20471;-87
2023/03/01 09:47:26;;;;;;;26.23;19.42;;;5.70;99.90;;;;;;4909463;29;20774;-85
2023/03/01 09:50:04;;;;;;;27.60;20.17;;;;;;;;;;4915804;29;20439;-84
2023/03/01 09:52:36;;;;;;;30.00;20.20;;;;;;;;;;4924618;29;20503;-85
2023/03/01 09:55:08;;;;;;;25.77;18.88;;;;;;;;;;4908903;29;20735;-84
2023/03/01 09:57:42;;;;;;;23.73;16.48;;;;;;;;;;4916399;29;20489;-83
2023/03/01 10:00:27;;;;;;;21.80;15.40;;;;;;;;;;4903136;29;20510;-83
2023/03/01 10:03:12;;;;;;;21.73;15.80;;;;;;;;;;4932816;29;20776;-85
2023/03/01 10:05:41;;;;;;;21.90;16.05;;;;;;;;;;4927714;29;20438;-85
2023/03/01 10:08:10;;;;;;;21.20;15.35;;;;;;;;;;4920662;29;20429;-84
2023/03/01 10:10:39;;;;;;;21.30;14.55;;;;;;;;;;4923404;29;20420;-84
2023/03/01 10:13:31;;;;;;;24.52;14.63;;;;;;;;;;4931168;29;20427;-83
2023/03/01 10:16:00;;;;;;;19.00;14.90;;;;;;;;;;4935859;29;20426;-84
2023/03/01 10:18:32;;;;;;;20.85;15.00;;;6.20;99.90;;;;;;4933645;29;20916;-84
2023/03/01 10:21:03;;;;;;;20.02;14.32;;;;;;;;;;4926114;29;20945;-84
2023/03/01 10:23:31;;;;;;;21.05;15.70;;;;;;;;;;4917466;29;20411;-84
2023/03/01 10:26:15;;;;;;;19.08;14.65;;;;;;;;;;4927622;29;20431;-83
2023/03/01 10:28:44;;;;;;;19.10;14.38;;;;;;;;;;4933554;29;20423;-83
2023/03/01 10:31:14;;;;;;;17.65;13.40;;;;;;;;;;4899009;29;20480;-84
2023/03/01 10:33:41;;;;;;;19.40;13.70;;;;;;;;;;4900586;29;20424;-83
2023/03/01 10:36:07;;;;;;;17.50;12.65;;;;;;;;;;4931095;29;20426;-84
2023/03/01 10:38:48;;;;;;;19.13;13.47;;;;;;;;;;4917219;29;20583;-84
2023/03/01 10:41:16;;;;;;;19.13;13.90;;;;;;;;;;4913413;29;20935;-84
2023/03/01 10:43:45;;;;;;;21.08;14.75;;;;;;;;;;4935014;29;20409;-84
2023/03/01 10:46:29;;;;;;;17.48;12.18;;;;;;;;;;4923002;29;20846;-84
2023/03/01 10:49:15;;;;;;;16.38;11.02;;;6.70;99.90;;;;;;4907011;29;20418;-83
2023/03/01 10:51:42;;;;;;;15.75;10.77;;;;;;;;;;4918271;29;20434;-83
2023/03/01 10:54:17;;;;;;;15.93;12.37;;;;;;;;;;4921518;29;20502;-82
2023/03/01 10:56:54;;;;;;;16.45;11.60;;;;;;;;;;4919676;29;20416;-83
2023/03/01 10:59:23;;;;;;;15.48;12.35;;;;;;;;;;4917812;29;20971;-84
2023/03/01 11:02:01;;;;;;;17.93;13.30;;;;;;;;;;4932194;29;20523;-84
2023/03/01 11:04:28;;;;;;;17.73;12.82;;;;;;;;;;4921839;29;20429;-85
2023/03/01 11:07:04;;;;;;;16.20;12.82;;;;;;;;;;4914666;29;20515;-85
2023/03/01 11:09:50;;;;;;;18.50;12.27;;;;;;;;;;4938964;29;20464;-85
2023/03/01 11:12:17;;;;;;;19.02;13.63;;;;;;;;;;4946655;29;20438;-85
2023/03/01 11:14:58;;;;;;;15.98;12.85;;;;;;;;;;4925873;29;20904;-85
2023/03/01 11:17:50;;;;;;;17.48;12.98;;;;;;;;;;4926344;29;20510;-86
2023/03/01 11:20:43;;;;;;;17.73;13.15;;;;;;;;;;4913052;29;20448;-84
2023/03/01 11:23:19;;;;;;;17.23;13.60;;;;;;;;;;4927788;29;20486;-86
2023/03/01 11:26:02;;;;;;;17.00;11.98;;;;;;;;;;4927612;29;20427;-86
2023/03/01 11:28:29;;;;;;;16.70;12.90;;;;;;;;;;4924323;29;20428;-85
2023/03/01 11:31:05;;;;;;;16.85;12.52;;;;;;;;;;4920669;29;20843;-86
2023/03/01 11:33:41;;;;;;;19.45;12.52;;;;;;;;;;4917153;29;20502;-86
2023/03/01 11:36:12;;;;;;;20.10;13.20;;;;;;;;;;4907252;29;20493;-86
2023/03/01 11:38:39;;;;;;;17.30;12.27;;;;;;;;;;4916926;29;20611;-86
2023/03/01 11:41:14;;;;;;;18.07;12.77;;;;;;;;;;4902245;29;20428;-86
2023/03/01 11:44:00;;;;;;;16.65;12.35;;;;;;;;;;4912842;29;20941;-86
2023/03/01 11:46:35;;;;;;;16.77;12.00;;;;;;;;;;4905627;29;20455;-86
2023/03/01 11:49:20;;;;;;;16.33;12.05;;;;;;;;;;4913712;29;20436;-86
2023/03/01 11:51:55;;;;;;;15.95;11.90;;;;;;;;;;4911909;29;20780;-88
2023/03/01 11:54:40;;;;;;;17.35;12.15;;;;;;;;;;4937598;29;20801;-90
2023/03/01 11:57:19;;;;;;;15.93;11.85;;;;;;;;;;4916018;29;21097;-87
2023/03/01 11:59:45;;;;;;;15.52;11.20;;;;;;;;;;4918989;29;20443;-87
2023/03/01 12:02:30;;;;;;;16.17;11.40;;;;;;;;;;4934855;29;20931;-90
2023/03/01 12:05:25;;;;;;;15.23;11.03;;;;;;;;;;4917094;29;20423;-89
2023/03/01 12:08:34;;;;;;;17.17;11.60;;;7.90;99.90;;;;;;4917105;29;20480;-89
2023/03/01 12:11:25;;;;;;;16.70;11.75;;;;;;;;;;4912412;29;20479;-89
2023/03/01 12:14:03;;;;;;;16.77;12.45;;;;;;;;;;4929499;29;20450;-88
2023/03/01 12:16:54;;;;;;;17.88;13.25;;;;;;;;;;4917206;29;20917;-89
2023/03/01 12:19:23;;;;;;;19.00;13.15;;;;;;;;;;4925353;29;20445;-86
2023/03/01 12:22:02;;;;;;;17.13;12.25;;;;;;;;;;4906980;29;20412;-86
2023/03/01 12:24:46;;;;;;;16.33;12.43;;;;;;;;;;4919620;29;20915;-86
2023/03/01 12:27:31;;;;;;;13.25;10.13;;;;;;;;;;4908287;29;20452;-87
2023/03/01 12:34:03;;;;;;;15.82;12.45;;;8.70;99.90;;;;;;4925038;29;20425;-87
2023/03/01 12:36:47;;;;;;;16.83;12.05;;;;;;;;;;4933076;29;20481;-87
2023/03/01 12:39:50;;;;;;;14.88;11.30;;;9.20;99.90;;;;;;4923595;29;20436;-88
2023/03/01 12:42:38;;;;;;;15.47;12.03;;;;;;;;;;4942378;29;20424;-87
2023/03/01 12:45:37;;;;;;;17.60;11.93;;;;;;;;;;4870961;29;20416;-87
2023/03/01 12:51:49;;;;;;;15.85;11.70;;;;;;;;;;4923482;29;20424;-87
2023/03/01 12:54:24;;;;;;;16.33;11.93;;;;;;;;;;4914606;29;20419;-89
2023/03/01 12:57:14;;;;;;;18.17;12.15;;;;;;;;;;4931090;29;20420;-89
2023/03/01 12:59:45;;;;;;;15.93;12.85;;;;;;;;;;4918283;29;20439;-89
2023/03/01 13:02:44;;;;;;;17.23;12.55;;;;;;;;;;4924987;29;20438;-89
2023/03/01 13:05:33;;;;;;;15.03;12.23;;;;;;;;;;4891759;29;20522;-90
2023/03/01 13:08:09;;;;;;;15.85;11.80;;;;;;;;;;4928726;29;20438;-90
2023/03/01 13:10:54;;;;;;;;;;;;;;;;;;;;;
2023/03/01 13:13:21;;;;;;;14.83;11.90;;;;;;;;;;4923159;29;20513;-89
2023/03/01 13:15:58;;;;;;;;;;;;;;;;;;;;;
2023/03/01 13:18:43;;;;;;;15.30;12.88;;;;;;;;;;4925299;29;20427;-89
2023/03/01 13:21:14;;;;;;;16.27;12.95;;;;;;;;;;4918393;29;20459;-91
2023/03/01 13:24:04;;;;;;;18.13;13.32;;;;;;;;;;4917059;29;20511;-90
2023/03/01 13:26:50;;;;;;;15.65;13.07;;;;;;;;;;4906732;29;20427;-91
2023/03/01 13:29:30;;;;;;;15.68;11.93;;;;;;;;;;4930856;29;20419;-91
2023/03/01 13:32:19;;;;;;;14.80;12.75;;;;;;;;;;4912776;29;20920;-89
2023/03/01 13:34:47;;;;;;;16.08;12.40;;;;;;;;;;4917677;29;21051;-92
2023/03/01 13:37:30;;;;;;;16.35;12.50;;;;;;;;;;4920699;29;20427;-90
2023/03/01 13:40:35;;;;;;;16.40;12.75;;;;;;;;;;4933052;29;20494;-89
2023/03/01 13:43:42;;;;;;;17.15;12.63;;;;;;;;;;4932520;29;20515;-89
2023/03/01 13:46:14;;;;;;;15.25;12.88;;;;;;;;;;4918649;29;20435;-90
2023/03/01 13:48:58;;;;;;;15.95;12.63;;;;;;;;;;4934866;29;20431;-90
2023/03/01 13:51:34;;;;;;;16.27;12.30;;;;;;;;;;4898054;29;20426;-89
2023/03/01 13:54:05;;;;;;;16.95;12.98;;;;;;;;;;4919176;29;20427;-89
2023/03/01 13:56:41;;;;;;;17.83;12.65;;;;;;;;;;4920231;29;20438;-89
2023/03/01 13:59:13;;;;;;;16.67;12.63;;;;;;;;;;4928248;29;20429;-91
2023/03/01 14:01:42;;;;;;;17.35;12.73;;;;;;;;;;4918853;29;20432;-91
2023/03/01 14:04:38;;;;;;;18.83;14.10;;;;;;;;;;4921836;29;20423;-90
2023/03/01 14:10:36;;;;;;;16.95;12.98;;;;;;;;;;4902199;29;20452;-91
2023/03/01 14:13:04;;;;;;;18.38;13.65;;;;;;;;;;4885210;29;20561;-91
2023/03/01 14:15:43;;;;;;;21.23;14.32;;;;;;;;;;4900745;29;20467;-91
2023/03/01 14:18:20;;;;;;;17.67;13.82;;;;;;;;;;4920450;29;20476;-90
2023/03/01 14:20:52;;;;;;;18.45;13.40;;;;;;;;;;4890737;29;20900;-91
2023/03/01 14:23:50;;;;;;;;;;;;;;;;;;;;;
2023/03/01 14:26:23;;;;;;;16.98;13.40;;;;;;;;;;4932744;29;20487;-88
2023/03/01 14:28:56;;;;;;;15.90;12.93;;;;;;;;;;4920199;29;20416;-89
2023/03/01 14:31:44;;;;;;;16.77;12.65;;;;;;;;;;4920497;29;20411;-89
2023/03/01 14:34:20;;;;;;;17.70;12.77;;;;;;;;;;4914287;29;20590;-90
2023/03/01 14:36:57;;;;;;;16.92;13.25;;;;;;;;;;4904420;29;20461;-93
2023/03/01 14:42:50;;;;;;;17.00;12.75;;;;;;;;;;4919987;29;20401;-91
2023/03/01 14:45:19;;;;;;;17.45;12.68;;;;;;;;;;4910222;29;20403;-93
2023/03/01 14:47:46;;;;;;;16.17;12.48;;;;;;;;;;4903795;29;20987;-91
2023/03/01 14:50:21;;;;;;;16.67;12.32;;;;;;;;;;4936320;29;20805;-90
2023/03/01 14:52:49;;;;;;;17.50;12.53;;;;;;;;;;4917013;29;20435;-89
2023/03/01 14:55:20;;;;;;;17.53;12.73;;;;;;;;;;4900885;29;20569;-88